Grand Ledge, MI (48837)

8:00 PM EDT on September 02, 2014 (GMT -0400)
Capital City | Change Station
CLOSE
Current Station
Airport
Location: Lansing,
Elevation: 873 ft
Nearby Weather Stations

Elev 873 ft 42.78 °N, 84.58 °W | Updated 7 minutes ago

Clear
Clear
72 °F
Feels Like 72 °F
N
5
Wind Variable Wind from West

Today
High -- | Low -- °F
--% Chance of Precip.
Yesterday
High -- | Low -- °F
Precip. -- in
7:04 AM 8:11 PM
First Quarter, 56% visible
Pressure 29.90 in
Visibility 10.0 miles
Clouds Clear
Dew Point 56 °F
Humidity 57%
Rainfall 0.00 in
Snow Depth Not available.
UV 0 out of 12
Pollen 6.10 out of 12
Ozone Good
Flu Activity Not available.
METAR KLAN 022353Z 27004KT 10SM CLR 22/13 A2991 RMK AO2 SLP123 T02220133 10261 20222 53002

More Conditions Fewer Conditions

Pressure 29.90 in
Visibility 10.0 miles
Clouds Clear
Dew Point 56 °F
Humidity 57%
Rainfall 0.00 in
Snow Depth Not available.
UV 0 out of 12
Pollen 6.10 out of 12
Ozone Good
Flu Activity Not available.
METAR KLAN 022353Z 27004KT 10SM CLR 22/13 A2991 RMK AO2 SLP123 T02220133 10261 20222 53002

More Conditions Fewer Conditions

10-Day Weather Forecast

Almanac

Astronomy

Sep. 02, 2014 Rise Set
Actual Time 7:04 AM EDT 8:11 PM EDT
Civil Twilight 6:35 AM EDT 8:40 PM EDT
Nautical Twilight 6:01 AM EDT 9:15 PM EDT
Astronomical Twilight 5:24 AM EDT 9:51 PM EDT
Moon 2:58 PM EDT (9/2) 12:04 AM EDT (9/2)
Length of Visible Light 14h 04m
Length of Day
13h 06m
Tomorrow will be 2m 48s shorter.
First Quarter, 56% of the Moon is Illuminated
Today
First Quarter
Sep 8
Full
Sep 15
Last Quarter
Sep 24
New
Oct 1
First Quarter

Today's Extremes

State Highs State Lows

Community

WunderPhotos

Upload Photos

1,749,803 photos uploaded!

Nearby

Air Quality

  Air Quality AQ Index Pollutant
Yesterday Good
OZONE
Current Good
OZONE
Tuesday Good
OZONE
Tuesday Good
PM2.5
Wednesday Good
OZONE
Wednesday Good
PM2.5
Thursday Moderate
PM2.5
Thursday Good
OZONE
Friday Good
OZONE
Friday Good
PM2.5
Saturday Good
OZONE
Saturday Good
PM2.5
Sunday Good
OZONE
Sunday Good
PM2.5

Snow Depth

Station Depth Elevation
No new snow has been reported.

Earthquake Activity

City Distance Mag. Time & Date
No recent earthquake activity has been reported nearby.
Minimum magnitude displayed is 2.5.

Coastal Water Temperatures

Place Temperature
No Stations Reporting

Nearby Weather Stations